Airport View

Enter AWOS ICAO identifier for current METAR.

KFNL for example

KAEJ 240825Z AUTO 27004KT 10SM CLR 12/09 A3037 RMK AO2 T01170090

24 Jul 2017 08:27

Frequency: 132.925

Phone: 719-395-2599

Other Area AWOS: K7BM - KANK - KMYP - KLXV

TAF KASE 240540Z 2406/2506 15010KT P6SM SCT100 BKN200 FM240900 19005KT P6SM SCT100 BKN200 FM241600 36003KT P6SM SCT100 BKN150 FM241900 36007KT P6SM VCTS BKN070CB BKN100 FM250100 16010KT P6SM VCTS BKN050CB OVC080